sensor_id;sensor_type;location;lat;lon;timestamp;temperature;humidity
43561;DHT22;32305;46.410;17.394;2023-04-06T00:01:08;21.90;29.20
43561;DHT22;32305;46.410;17.394;2023-04-06T00:03:35;21.90;29.20
43561;DHT22;32305;46.410;17.394;2023-04-06T00:06:02;21.90;29.20
43561;DHT22;32305;46.410;17.394;2023-04-06T00:08:30;21.90;29.20
43561;DHT22;32305;46.410;17.394;2023-04-06T00:10:57;21.90;29.30
43561;DHT22;32305;46.410;17.394;2023-04-06T00:13:24;21.90;29.30
43561;DHT22;32305;46.410;17.394;2023-04-06T00:15:54;21.90;29.30
43561;DHT22;32305;46.410;17.394;2023-04-06T00:18:21;21.90;29.30
43561;DHT22;32305;46.410;17.394;2023-04-06T00:20:48;21.80;29.20
43561;DHT22;32305;46.410;17.394;2023-04-06T00:23:18;21.80;29.30
43561;DHT22;32305;46.410;17.394;2023-04-06T00:25:45;21.80;29.30
43561;DHT22;32305;46.410;17.394;2023-04-06T00:28:12;21.80;29.30
43561;DHT22;32305;46.410;17.394;2023-04-06T00:30:40;21.80;29.30
43561;DHT22;32305;46.410;17.394;2023-04-06T00:33:07;21.80;29.30
43561;DHT22;32305;46.410;17.394;2023-04-06T00:35:35;21.80;29.30
43561;DHT22;32305;46.410;17.394;2023-04-06T00:38:02;21.80;29.30
43561;DHT22;32305;46.410;17.394;2023-04-06T00:40:29;21.80;29.30
43561;DHT22;32305;46.410;17.394;2023-04-06T00:42:57;21.80;29.30
43561;DHT22;32305;46.410;17.394;2023-04-06T00:45:25;21.80;29.30
43561;DHT22;32305;46.410;17.394;2023-04-06T00:47:52;21.80;29.30
43561;DHT22;32305;46.410;17.394;2023-04-06T00:50:19;21.80;29.30
43561;DHT22;32305;46.410;17.394;2023-04-06T00:52:46;21.80;29.30
43561;DHT22;32305;46.410;17.394;2023-04-06T00:55:13;21.80;29.30
43561;DHT22;32305;46.410;17.394;2023-04-06T00:57:41;21.80;29.30
43561;DHT22;32305;46.410;17.394;2023-04-06T01:00:08;21.80;29.30
43561;DHT22;32305;46.410;17.394;2023-04-06T01:02:36;21.80;29.30
43561;DHT22;32305;46.410;17.394;2023-04-06T01:05:03;21.80;29.30
43561;DHT22;32305;46.410;17.394;2023-04-06T01:07:30;21.80;29.30
43561;DHT22;32305;46.410;17.394;2023-04-06T01:09:58;21.70;29.30
43561;DHT22;32305;46.410;17.394;2023-04-06T01:12:25;21.80;29.30
43561;DHT22;32305;46.410;17.394;2023-04-06T01:14:52;21.80;29.30
43561;DHT22;32305;46.410;17.394;2023-04-06T01:17:19;21.80;29.30
43561;DHT22;32305;46.410;17.394;2023-04-06T01:19:46;21.70;29.30
43561;DHT22;32305;46.410;17.394;2023-04-06T01:22:16;21.80;29.30
43561;DHT22;32305;46.410;17.394;2023-04-06T01:24:44;21.70;29.30
43561;DHT22;32305;46.410;17.394;2023-04-06T01:27:12;21.70;29.30
43561;DHT22;32305;46.410;17.394;2023-04-06T01:29:42;21.70;29.30
43561;DHT22;32305;46.410;17.394;2023-04-06T01:32:10;21.70;29.30
43561;DHT22;32305;46.410;17.394;2023-04-06T01:34:37;21.70;29.30
43561;DHT22;32305;46.410;17.394;2023-04-06T01:37:04;21.70;29.30
43561;DHT22;32305;46.410;17.394;2023-04-06T01:39:31;21.70;29.30
43561;DHT22;32305;46.410;17.394;2023-04-06T01:41:58;21.70;29.70
43561;DHT22;32305;46.410;17.394;2023-04-06T01:44:25;21.70;29.30
43561;DHT22;32305;46.410;17.394;2023-04-06T01:46:52;21.70;29.30
43561;DHT22;32305;46.410;17.394;2023-04-06T01:49:20;21.70;29.30
43561;DHT22;32305;46.410;17.394;2023-04-06T01:51:47;21.70;29.30
43561;DHT22;32305;46.410;17.394;2023-04-06T01:54:14;21.70;29.30
43561;DHT22;32305;46.410;17.394;2023-04-06T01:56:41;21.70;29.30
43561;DHT22;32305;46.410;17.394;2023-04-06T01:59:08;21.70;29.30
43561;DHT22;32305;46.410;17.394;2023-04-06T02:01:36;21.60;29.30
43561;DHT22;32305;46.410;17.394;2023-04-06T02:04:03;21.60;29.30
43561;DHT22;32305;46.410;17.394;2023-04-06T02:06:31;21.60;29.30
43561;DHT22;32305;46.410;17.394;2023-04-06T02:08:58;21.60;29.30
43561;DHT22;32305;46.410;17.394;2023-04-06T02:11:25;21.60;29.30
43561;DHT22;32305;46.410;17.394;2023-04-06T02:13:52;21.60;29.30
43561;DHT22;32305;46.410;17.394;2023-04-06T02:16:19;21.60;29.30
43561;DHT22;32305;46.410;17.394;2023-04-06T02:18:46;21.60;29.30
43561;DHT22;32305;46.410;17.394;2023-04-06T02:21:13;21.60;29.30
43561;DHT22;32305;46.410;17.394;2023-04-06T02:23:40;21.60;29.30
43561;DHT22;32305;46.410;17.394;2023-04-06T02:26:07;21.60;29.30
43561;DHT22;32305;46.410;17.394;2023-04-06T02:28:35;21.60;29.30
43561;DHT22;32305;46.410;17.394;2023-04-06T02:31:02;21.60;29.30
43561;DHT22;32305;46.410;17.394;2023-04-06T02:33:29;21.60;29.30
43561;DHT22;32305;46.410;17.394;2023-04-06T02:35:56;21.60;29.30
43561;DHT22;32305;46.410;17.394;2023-04-06T02:38:23;21.60;29.30
43561;DHT22;32305;46.410;17.394;2023-04-06T02:40:50;21.60;29.80
43561;DHT22;32305;46.410;17.394;2023-04-06T02:43:18;21.60;29.30
43561;DHT22;32305;46.410;17.394;2023-04-06T02:45:45;21.60;29.30
43561;DHT22;32305;46.410;17.394;2023-04-06T02:48:13;21.60;29.30
43561;DHT22;32305;46.410;17.394;2023-04-06T02:50:40;21.50;29.30
43561;DHT22;32305;46.410;17.394;2023-04-06T02:53:07;21.50;29.30
43561;DHT22;32305;46.410;17.394;2023-04-06T02:55:34;21.50;29.30
43561;DHT22;32305;46.410;17.394;2023-04-06T02:58:02;21.50;29.30
43561;DHT22;32305;46.410;17.394;2023-04-06T03:00:29;21.50;29.30
43561;DHT22;32305;46.410;17.394;2023-04-06T03:02:56;21.60;29.30
43561;DHT22;32305;46.410;17.394;2023-04-06T03:05:23;21.50;29.30
43561;DHT22;32305;46.410;17.394;2023-04-06T03:07:50;21.50;29.30
43561;DHT22;32305;46.410;17.394;2023-04-06T03:10:18;21.50;29.30
43561;DHT22;32305;46.410;17.394;2023-04-06T03:12:45;21.50;29.30
43561;DHT22;32305;46.410;17.394;2023-04-06T03:15:12;21.50;29.30
43561;DHT22;32305;46.410;17.394;2023-04-06T03:17:39;21.50;29.30
43561;DHT22;32305;46.410;17.394;2023-04-06T03:20:06;21.60;29.40
43561;DHT22;32305;46.410;17.394;2023-04-06T03:22:34;21.50;29.30
43561;DHT22;32305;46.410;17.394;2023-04-06T03:25:01;21.60;29.30
43561;DHT22;32305;46.410;17.394;2023-04-06T03:27:29;21.50;29.30
43561;DHT22;32305;46.410;17.394;2023-04-06T03:29:56;21.60;29.40
43561;DHT22;32305;46.410;17.394;2023-04-06T03:32:23;21.50;29.30
43561;DHT22;32305;46.410;17.394;2023-04-06T03:34:50;21.50;29.20
43561;DHT22;32305;46.410;17.394;2023-04-06T03:37:18;21.50;29.20
43561;DHT22;32305;46.410;17.394;2023-04-06T03:39:45;21.50;29.20
43561;DHT22;32305;46.410;17.394;2023-04-06T03:42:12;21.50;29.20
43561;DHT22;32305;46.410;17.394;2023-04-06T03:44:39;21.50;29.30
43561;DHT22;32305;46.410;17.394;2023-04-06T03:47:06;21.50;29.20
43561;DHT22;32305;46.410;17.394;2023-04-06T03:49:33;21.50;29.20
43561;DHT22;32305;46.410;17.394;2023-04-06T03:52:01;21.50;29.20
43561;DHT22;32305;46.410;17.394;2023-04-06T03:54:28;21.50;29.20
43561;DHT22;32305;46.410;17.394;2023-04-06T03:56:55;21.50;29.20
43561;DHT22;32305;46.410;17.394;2023-04-06T03:59:22;21.50;29.20
43561;DHT22;32305;46.410;17.394;2023-04-06T04:01:49;21.50;29.20
43561;DHT22;32305;46.410;17.394;2023-04-06T04:04:16;21.50;29.30
43561;DHT22;32305;46.410;17.394;2023-04-06T04:06:43;21.50;29.20
43561;DHT22;32305;46.410;17.394;2023-04-06T04:09:11;21.40;29.20
43561;DHT22;32305;46.410;17.394;2023-04-06T04:11:38;21.50;29.20
43561;DHT22;32305;46.410;17.394;2023-04-06T04:14:05;21.50;29.20
43561;DHT22;32305;46.410;17.394;2023-04-06T04:16:32;21.50;29.20
43561;DHT22;32305;46.410;17.394;2023-04-06T04:19:00;21.40;29.20
43561;DHT22;32305;46.410;17.394;2023-04-06T04:21:29;21.40;29.20
43561;DHT22;32305;46.410;17.394;2023-04-06T04:23:58;21.40;29.20
43561;DHT22;32305;46.410;17.394;2023-04-06T04:26:25;21.40;29.20
43561;DHT22;32305;46.410;17.394;2023-04-06T04:28:52;21.40;29.20
43561;DHT22;32305;46.410;17.394;2023-04-06T04:31:19;21.40;29.20
43561;DHT22;32305;46.410;17.394;2023-04-06T04:33:48;21.40;29.20
43561;DHT22;32305;46.410;17.394;2023-04-06T04:36:16;21.40;29.20
43561;DHT22;32305;46.410;17.394;2023-04-06T04:38:43;21.40;29.10
43561;DHT22;32305;46.410;17.394;2023-04-06T04:41:10;21.40;28.90
43561;DHT22;32305;46.410;17.394;2023-04-06T04:43:37;21.40;28.90
43561;DHT22;32305;46.410;17.394;2023-04-06T04:46:05;21.30;28.90
43561;DHT22;32305;46.410;17.394;2023-04-06T04:48:32;21.30;28.90
43561;DHT22;32305;46.410;17.394;2023-04-06T04:50:59;21.30;28.90
43561;DHT22;32305;46.410;17.394;2023-04-06T04:53:26;21.30;28.90
43561;DHT22;32305;46.410;17.394;2023-04-06T04:55:54;21.30;28.90
43561;DHT22;32305;46.410;17.394;2023-04-06T04:58:21;21.30;28.90
43561;DHT22;32305;46.410;17.394;2023-04-06T05:00:48;21.30;28.70
43561;DHT22;32305;46.410;17.394;2023-04-06T05:03:22;21.40;28.70
43561;DHT22;32305;46.410;17.394;2023-04-06T05:05:50;21.40;28.60
43561;DHT22;32305;46.410;17.394;2023-04-06T05:08:17;21.50;28.60
43561;DHT22;32305;46.410;17.394;2023-04-06T05:10:44;21.50;28.60
43561;DHT22;32305;46.410;17.394;2023-04-06T05:13:12;21.60;28.70
43561;DHT22;32305;46.410;17.394;2023-04-06T05:15:39;21.60;28.60
43561;DHT22;32305;46.410;17.394;2023-04-06T05:18:08;21.60;28.60
43561;DHT22;32305;46.410;17.394;2023-04-06T05:20:36;21.60;28.60
43561;DHT22;32305;46.410;17.394;2023-04-06T05:23:03;21.70;28.60
43561;DHT22;32305;46.410;17.394;2023-04-06T05:25:30;21.70;28.60
43561;DHT22;32305;46.410;17.394;2023-04-06T05:27:57;21.80;28.60
43561;DHT22;32305;46.410;17.394;2023-04-06T05:30:26;21.90;28.50
43561;DHT22;32305;46.410;17.394;2023-04-06T05:32:53;22.00;28.40
43561;DHT22;32305;46.410;17.394;2023-04-06T05:35:20;22.10;28.30
43561;DHT22;32305;46.410;17.394;2023-04-06T05:37:47;22.20;28.20
43561;DHT22;32305;46.410;17.394;2023-04-06T05:40:14;22.30;28.10
43561;DHT22;32305;46.410;17.394;2023-04-06T05:42:42;22.40;28.10
43561;DHT22;32305;46.410;17.394;2023-04-06T05:45:10;22.50;28.10
43561;DHT22;32305;46.410;17.394;2023-04-06T05:47:37;22.50;28.00
43561;DHT22;32305;46.410;17.394;2023-04-06T05:50:05;22.60;28.00
43561;DHT22;32305;46.410;17.394;2023-04-06T05:52:33;22.60;27.90
43561;DHT22;32305;46.410;17.394;2023-04-06T05:55:00;22.60;27.80
43561;DHT22;32305;46.410;17.394;2023-04-06T05:57:27;22.70;27.80
43561;DHT22;32305;46.410;17.394;2023-04-06T05:59:55;22.70;27.90
43561;DHT22;32305;46.410;17.394;2023-04-06T06:02:22;22.80;27.80
43561;DHT22;32305;46.410;17.394;2023-04-06T06:04:49;22.90;27.70
43561;DHT22;32305;46.410;17.394;2023-04-06T06:07:17;22.90;27.70
43561;DHT22;32305;46.410;17.394;2023-04-06T06:09:44;22.90;27.70
43561;DHT22;32305;46.410;17.394;2023-04-06T06:12:12;23.00;27.90
43561;DHT22;32305;46.410;17.394;2023-04-06T06:14:40;23.00;28.00
43561;DHT22;32305;46.410;17.394;2023-04-06T06:17:08;23.10;28.10
43561;DHT22;32305;46.410;17.394;2023-04-06T06:19:36;23.20;28.60
43561;DHT22;32305;46.410;17.394;2023-04-06T06:22:03;23.20;28.20
43561;DHT22;32305;46.410;17.394;2023-04-06T06:24:31;23.20;28.50
43561;DHT22;32305;46.410;17.394;2023-04-06T06:26:59;23.20;28.50
43561;DHT22;32305;46.410;17.394;2023-04-06T06:29:26;23.20;28.30
43561;DHT22;32305;46.410;17.394;2023-04-06T06:31:54;23.10;28.00
43561;DHT22;32305;46.410;17.394;2023-04-06T06:34:21;23.10;27.90
43561;DHT22;32305;46.410;17.394;2023-04-06T06:36:48;23.20;27.90
43561;DHT22;32305;46.410;17.394;2023-04-06T06:39:18;23.20;27.80
43561;DHT22;32305;46.410;17.394;2023-04-06T06:41:45;23.30;27.80
43561;DHT22;32305;46.410;17.394;2023-04-06T06:44:12;23.30;27.70
43561;DHT22;32305;46.410;17.394;2023-04-06T06:46:41;23.30;27.60
43561;DHT22;32305;46.410;17.394;2023-04-06T06:49:09;23.30;27.60
43561;DHT22;32305;46.410;17.394;2023-04-06T06:51:39;23.40;27.60
43561;DHT22;32305;46.410;17.394;2023-04-06T06:54:06;23.40;27.50
43561;DHT22;32305;46.410;17.394;2023-04-06T06:56:34;23.40;27.40
43561;DHT22;32305;46.410;17.394;2023-04-06T06:59:02;23.40;27.40
43561;DHT22;32305;46.410;17.394;2023-04-06T07:01:34;23.50;27.40
43561;DHT22;32305;46.410;17.394;2023-04-06T07:04:01;23.50;27.40
43561;DHT22;32305;46.410;17.394;2023-04-06T07:06:29;23.50;27.30
43561;DHT22;32305;46.410;17.394;2023-04-06T07:08:56;23.60;27.30
43561;DHT22;32305;46.410;17.394;2023-04-06T07:11:23;23.60;27.30
43561;DHT22;32305;46.410;17.394;2023-04-06T07:13:50;23.60;27.40
43561;DHT22;32305;46.410;17.394;2023-04-06T07:16:18;23.70;27.30
43561;DHT22;32305;46.410;17.394;2023-04-06T07:18:45;23.70;27.30
43561;DHT22;32305;46.410;17.394;2023-04-06T07:21:12;23.70;27.30
43561;DHT22;32305;46.410;17.394;2023-04-06T07:23:40;23.70;27.30
43561;DHT22;32305;46.410;17.394;2023-04-06T07:26:07;23.70;27.40
43561;DHT22;32305;46.410;17.394;2023-04-06T07:28:35;23.80;27.40
43561;DHT22;32305;46.410;17.394;2023-04-06T07:31:03;23.80;27.30
43561;DHT22;32305;46.410;17.394;2023-04-06T07:33:30;23.80;27.20
43561;DHT22;32305;46.410;17.394;2023-04-06T07:35:57;23.90;27.20
43561;DHT22;32305;46.410;17.394;2023-04-06T07:38:25;23.90;27.10
43561;DHT22;32305;46.410;17.394;2023-04-06T07:40:54;24.00;27.10
43561;DHT22;32305;46.410;17.394;2023-04-06T07:43:21;24.00;27.30
43561;DHT22;32305;46.410;17.394;2023-04-06T07:45:48;24.00;27.40
43561;DHT22;32305;46.410;17.394;2023-04-06T07:48:15;24.10;27.60
43561;DHT22;32305;46.410;17.394;2023-04-06T07:50:43;24.10;27.70
43561;DHT22;32305;46.410;17.394;2023-04-06T07:53:11;24.10;27.70
43561;DHT22;32305;46.410;17.394;2023-04-06T07:55:38;24.10;27.60
43561;DHT22;32305;46.410;17.394;2023-04-06T07:58:05;24.10;27.50
43561;DHT22;32305;46.410;17.394;2023-04-06T08:00:33;24.20;27.50
43561;DHT22;32305;46.410;17.394;2023-04-06T08:03:00;24.20;27.50
43561;DHT22;32305;46.410;17.394;2023-04-06T08:05:28;24.30;27.40
43561;DHT22;32305;46.410;17.394;2023-04-06T08:07:55;24.30;27.40
43561;DHT22;32305;46.410;17.394;2023-04-06T08:10:22;24.30;27.30
43561;DHT22;32305;46.410;17.394;2023-04-06T08:12:49;24.30;27.30
43561;DHT22;32305;46.410;17.394;2023-04-06T08:15:16;24.30;27.20
43561;DHT22;32305;46.410;17.394;2023-04-06T08:17:45;24.40;27.20
43561;DHT22;32305;46.410;17.394;2023-04-06T08:20:12;24.40;27.20
43561;DHT22;32305;46.410;17.394;2023-04-06T08:22:39;24.40;27.10
43561;DHT22;32305;46.410;17.394;2023-04-06T08:25:06;24.50;27.10
43561;DHT22;32305;46.410;17.394;2023-04-06T08:27:34;24.50;27.10
43561;DHT22;32305;46.410;17.394;2023-04-06T08:30:01;24.50;27.00
43561;DHT22;32305;46.410;17.394;2023-04-06T08:32:29;24.50;27.10
43561;DHT22;32305;46.410;17.394;2023-04-06T08:34:56;24.50;27.00
43561;DHT22;32305;46.410;17.394;2023-04-06T08:37:25;24.50;26.90
43561;DHT22;32305;46.410;17.394;2023-04-06T08:39:52;24.50;26.70
43561;DHT22;32305;46.410;17.394;2023-04-06T08:42:21;24.60;26.70
43561;DHT22;32305;46.410;17.394;2023-04-06T08:44:49;24.60;26.70
43561;DHT22;32305;46.410;17.394;2023-04-06T08:47:18;24.60;26.60
43561;DHT22;32305;46.410;17.394;2023-04-06T08:49:51;24.60;26.50
43561;DHT22;32305;46.410;17.394;2023-04-06T08:52:19;24.60;26.50
43561;DHT22;32305;46.410;17.394;2023-04-06T08:54:47;24.70;26.40
43561;DHT22;32305;46.410;17.394;2023-04-06T08:57:15;24.70;26.40
43561;DHT22;32305;46.410;17.394;2023-04-06T08:59:44;24.70;26.30
43561;DHT22;32305;46.410;17.394;2023-04-06T09:02:17;24.70;26.10
43561;DHT22;32305;46.410;17.394;2023-04-06T09:04:48;24.70;26.30
43561;DHT22;32305;46.410;17.394;2023-04-06T09:07:15;24.70;26.30
43561;DHT22;32305;46.410;17.394;2023-04-06T09:09:43;24.80;26.30
43561;DHT22;32305;46.410;17.394;2023-04-06T09:12:27;24.80;26.20
43561;DHT22;32305;46.410;17.394;2023-04-06T09:14:55;24.80;26.10
43561;DHT22;32305;46.410;17.394;2023-04-06T09:17:30;24.80;26.10
43561;DHT22;32305;46.410;17.394;2023-04-06T09:20:01;24.80;26.10
43561;DHT22;32305;46.410;17.394;2023-04-06T09:22:37;24.80;26.00
43561;DHT22;32305;46.410;17.394;2023-04-06T09:25:04;24.90;26.00
43561;DHT22;32305;46.410;17.394;2023-04-06T09:27:34;24.90;26.00
43561;DHT22;32305;46.410;17.394;2023-04-06T09:30:10;24.90;26.10
43561;DHT22;32305;46.410;17.394;2023-04-06T09:32:47;24.90;26.00
43561;DHT22;32305;46.410;17.394;2023-04-06T09:35:15;25.00;26.00
43561;DHT22;32305;46.410;17.394;2023-04-06T09:37:46;25.00;26.00
43561;DHT22;32305;46.410;17.394;2023-04-06T09:40:14;25.00;26.00
43561;DHT22;32305;46.410;17.394;2023-04-06T09:42:46;25.00;26.00
43561;DHT22;32305;46.410;17.394;2023-04-06T09:45:14;25.10;26.00
43561;DHT22;32305;46.410;17.394;2023-04-06T09:47:45;25.10;26.00
43561;DHT22;32305;46.410;17.394;2023-04-06T09:50:14;25.10;26.00
43561;DHT22;32305;46.410;17.394;2023-04-06T09:52:50;25.10;26.10
43561;DHT22;32305;46.410;17.394;2023-04-06T09:55:23;25.10;26.00
43561;DHT22;32305;46.410;17.394;2023-04-06T09:58:00;25.20;26.00
43561;DHT22;32305;46.410;17.394;2023-04-06T10:00:31;25.30;25.90
43561;DHT22;32305;46.410;17.394;2023-04-06T10:03:19;25.30;25.70
43561;DHT22;32305;46.410;17.394;2023-04-06T10:05:57;25.40;25.60
43561;DHT22;32305;46.410;17.394;2023-04-06T10:08:28;25.40;25.50
43561;DHT22;32305;46.410;17.394;2023-04-06T10:10:59;25.40;25.40
43561;DHT22;32305;46.410;17.394;2023-04-06T10:13:28;25.40;25.30
43561;DHT22;32305;46.410;17.394;2023-04-06T10:15:56;25.50;25.20
43561;DHT22;32305;46.410;17.394;2023-04-06T10:18:24;25.50;25.10
43561;DHT22;32305;46.410;17.394;2023-04-06T10:21:03;25.50;25.10
43561;DHT22;32305;46.410;17.394;2023-04-06T10:23:54;25.50;25.10
43561;DHT22;32305;46.410;17.394;2023-04-06T10:26:22;25.60;25.00
43561;DHT22;32305;46.410;17.394;2023-04-06T10:28:50;25.60;25.10
43561;DHT22;32305;46.410;17.394;2023-04-06T10:31:25;25.60;25.10
43561;DHT22;32305;46.410;17.394;2023-04-06T10:34:01;25.70;25.10
43561;DHT22;32305;46.410;17.394;2023-04-06T10:36:32;25.60;25.00
43561;DHT22;32305;46.410;17.394;2023-04-06T10:39:03;25.70;25.00
43561;DHT22;32305;46.410;17.394;2023-04-06T10:41:44;25.70;25.00
43561;DHT22;32305;46.410;17.394;2023-04-06T10:44:23;25.70;24.90
43561;DHT22;32305;46.410;17.394;2023-04-06T10:46:56;25.70;24.80
43561;DHT22;32305;46.410;17.394;2023-04-06T10:49:25;25.70;24.70
43561;DHT22;32305;46.410;17.394;2023-04-06T10:51:56;25.70;24.80
43561;DHT22;32305;46.410;17.394;2023-04-06T10:54:26;25.80;24.70
43561;DHT22;32305;46.410;17.394;2023-04-06T10:56:54;25.80;24.80
43561;DHT22;32305;46.410;17.394;2023-04-06T10:59:22;25.80;24.80
43561;DHT22;32305;46.410;17.394;2023-04-06T11:01:52;25.90;24.90
43561;DHT22;32305;46.410;17.394;2023-04-06T11:04:20;25.90;24.80
43561;DHT22;32305;46.410;17.394;2023-04-06T11:06:48;26.00;24.90
43561;DHT22;32305;46.410;17.394;2023-04-06T11:09:24;26.00;24.90
43561;DHT22;32305;46.410;17.394;2023-04-06T11:11:53;26.00;24.80
43561;DHT22;32305;46.410;17.394;2023-04-06T11:14:21;26.00;24.70
43561;DHT22;32305;46.410;17.394;2023-04-06T11:16:48;26.00;22.50
43561;DHT22;32305;46.410;17.394;2023-04-06T11:19:17;25.80;23.00
43561;DHT22;32305;46.410;17.394;2023-04-06T11:21:46;25.70;23.20
43561;DHT22;32305;46.410;17.394;2023-04-06T11:24:24;25.80;23.60
43561;DHT22;32305;46.410;17.394;2023-04-06T11:26:56;25.80;23.90
43561;DHT22;32305;46.410;17.394;2023-04-06T11:29:27;25.80;24.00
43561;DHT22;32305;46.410;17.394;2023-04-06T11:31:59;25.90;24.40
43561;DHT22;32305;46.410;17.394;2023-04-06T11:34:29;25.90;24.30
43561;DHT22;32305;46.410;17.394;2023-04-06T11:36:59;26.00;24.40
43561;DHT22;32305;46.410;17.394;2023-04-06T11:39:27;26.00;24.40
43561;DHT22;32305;46.410;17.394;2023-04-06T11:42:00;26.10;24.60
43561;DHT22;32305;46.410;17.394;2023-04-06T11:44:42;26.10;24.80
43561;DHT22;32305;46.410;17.394;2023-04-06T11:47:11;26.10;24.70
43561;DHT22;32305;46.410;17.394;2023-04-06T11:49:41;26.10;24.80
43561;DHT22;32305;46.410;17.394;2023-04-06T11:52:21;26.20;24.50
43561;DHT22;32305;46.410;17.394;2023-04-06T11:54:50;26.20;24.60
43561;DHT22;32305;46.410;17.394;2023-04-06T11:57:19;26.20;24.50
43561;DHT22;32305;46.410;17.394;2023-04-06T11:59:47;26.20;24.50
43561;DHT22;32305;46.410;17.394;2023-04-06T12:02:14;26.30;24.40
43561;DHT22;32305;46.410;17.394;2023-04-06T12:04:41;26.30;24.50
43561;DHT22;32305;46.410;17.394;2023-04-06T12:07:09;26.30;24.20
43561;DHT22;32305;46.410;17.394;2023-04-06T12:09:36;26.30;24.50
43561;DHT22;32305;46.410;17.394;2023-04-06T12:12:03;26.30;24.60
43561;DHT22;32305;46.410;17.394;2023-04-06T12:14:31;26.30;24.50
43561;DHT22;32305;46.410;17.394;2023-04-06T12:16:59;26.30;24.30
43561;DHT22;32305;46.410;17.394;2023-04-06T12:19:26;26.30;24.30
43561;DHT22;32305;46.410;17.394;2023-04-06T12:21:55;26.30;24.40
43561;DHT22;32305;46.410;17.394;2023-04-06T12:24:24;26.30;24.40
43561;DHT22;32305;46.410;17.394;2023-04-06T12:26:51;26.30;24.30
43561;DHT22;32305;46.410;17.394;2023-04-06T12:29:34;26.40;24.30
43561;DHT22;32305;46.410;17.394;2023-04-06T12:32:01;26.30;24.30
43561;DHT22;32305;46.410;17.394;2023-04-06T12:34:29;26.30;24.30
43561;DHT22;32305;46.410;17.394;2023-04-06T12:36:57;26.30;24.30
43561;DHT22;32305;46.410;17.394;2023-04-06T12:39:24;26.30;24.60
43561;DHT22;32305;46.410;17.394;2023-04-06T12:41:52;26.30;24.60
43561;DHT22;32305;46.410;17.394;2023-04-06T12:44:19;26.30;24.70
43561;DHT22;32305;46.410;17.394;2023-04-06T12:46:47;26.30;24.60
43561;DHT22;32305;46.410;17.394;2023-04-06T12:49:14;26.30;24.70
43561;DHT22;32305;46.410;17.394;2023-04-06T12:51:43;26.20;24.60
43561;DHT22;32305;46.410;17.394;2023-04-06T12:54:10;26.20;24.60
43561;DHT22;32305;46.410;17.394;2023-04-06T12:56:38;26.30;24.60
43561;DHT22;32305;46.410;17.394;2023-04-06T12:59:06;26.30;24.60
43561;DHT22;32305;46.410;17.394;2023-04-06T13:01:34;26.20;24.60
43561;DHT22;32305;46.410;17.394;2023-04-06T13:04:02;26.20;24.50
43561;DHT22;32305;46.410;17.394;2023-04-06T13:06:29;26.20;24.70
43561;DHT22;32305;46.410;17.394;2023-04-06T13:08:57;26.20;24.80
43561;DHT22;32305;46.410;17.394;2023-04-06T13:11:25;26.20;24.80
43561;DHT22;32305;46.410;17.394;2023-04-06T13:13:55;26.20;24.70
43561;DHT22;32305;46.410;17.394;2023-04-06T13:16:22;26.20;25.50
43561;DHT22;32305;46.410;17.394;2023-04-06T13:18:49;26.20;26.60
43561;DHT22;32305;46.410;17.394;2023-04-06T13:21:17;26.20;27.30
43561;DHT22;32305;46.410;17.394;2023-04-06T13:23:44;26.30;27.20
43561;DHT22;32305;46.410;17.394;2023-04-06T13:26:11;26.30;26.70
43561;DHT22;32305;46.410;17.394;2023-04-06T13:28:40;26.20;26.10
43561;DHT22;32305;46.410;17.394;2023-04-06T13:31:08;26.20;25.80
43561;DHT22;32305;46.410;17.394;2023-04-06T13:33:36;26.20;25.40
43561;DHT22;32305;46.410;17.394;2023-04-06T13:36:04;26.20;25.20
43561;DHT22;32305;46.410;17.394;2023-04-06T13:38:33;26.20;25.30
43561;DHT22;32305;46.410;17.394;2023-04-06T13:41:00;26.20;25.30
43561;DHT22;32305;46.410;17.394;2023-04-06T13:43:27;26.10;25.00
43561;DHT22;32305;46.410;17.394;2023-04-06T13:45:55;26.20;24.90
43561;DHT22;32305;46.410;17.394;2023-04-06T13:48:25;26.10;24.90
43561;DHT22;32305;46.410;17.394;2023-04-06T13:50:55;26.10;24.80
43561;DHT22;32305;46.410;17.394;2023-04-06T13:53:22;26.10;24.70
43561;DHT22;32305;46.410;17.394;2023-04-06T13:55:54;26.10;24.70
43561;DHT22;32305;46.410;17.394;2023-04-06T13:58:21;26.10;24.70
43561;DHT22;32305;46.410;17.394;2023-04-06T14:00:48;26.10;24.60
43561;DHT22;32305;46.410;17.394;2023-04-06T14:03:15;26.10;24.60
43561;DHT22;32305;46.410;17.394;2023-04-06T14:05:43;26.10;24.40
43561;DHT22;32305;46.410;17.394;2023-04-06T14:08:10;26.00;24.30
43561;DHT22;32305;46.410;17.394;2023-04-06T14:10:38;25.90;24.30
43561;DHT22;32305;46.410;17.394;2023-04-06T14:13:07;25.90;24.50
43561;DHT22;32305;46.410;17.394;2023-04-06T14:15:34;25.90;24.50
43561;DHT22;32305;46.410;17.394;2023-04-06T14:18:02;25.80;24.50
43561;DHT22;32305;46.410;17.394;2023-04-06T14:20:31;25.70;24.50
43561;DHT22;32305;46.410;17.394;2023-04-06T14:23:02;25.70;24.50
43561;DHT22;32305;46.410;17.394;2023-04-06T14:25:29;25.60;24.40
43561;DHT22;32305;46.410;17.394;2023-04-06T14:27:58;25.60;24.50
43561;DHT22;32305;46.410;17.394;2023-04-06T14:30:25;25.50;24.50
43561;DHT22;32305;46.410;17.394;2023-04-06T14:32:57;25.50;24.50
43561;DHT22;32305;46.410;17.394;2023-04-06T14:35:25;25.50;24.60
43561;DHT22;32305;46.410;17.394;2023-04-06T14:37:55;25.40;24.60
43561;DHT22;32305;46.410;17.394;2023-04-06T14:40:25;25.40;24.80
43561;DHT22;32305;46.410;17.394;2023-04-06T14:42:52;25.40;24.50
43561;DHT22;32305;46.410;17.394;2023-04-06T14:45:19;25.40;24.50
43561;DHT22;32305;46.410;17.394;2023-04-06T14:47:48;25.40;24.60
43561;DHT22;32305;46.410;17.394;2023-04-06T14:50:16;25.40;24.60
43561;DHT22;32305;46.410;17.394;2023-04-06T14:52:44;25.40;24.50
43561;DHT22;32305;46.410;17.394;2023-04-06T14:55:13;25.30;24.60
43561;DHT22;32305;46.410;17.394;2023-04-06T14:57:40;25.30;24.80
43561;DHT22;32305;46.410;17.394;2023-04-06T15:00:08;25.30;25.00
43561;DHT22;32305;46.410;17.394;2023-04-06T15:02:36;25.30;25.00
43561;DHT22;32305;46.410;17.394;2023-04-06T15:05:04;25.30;25.00
43561;DHT22;32305;46.410;17.394;2023-04-06T15:07:32;25.30;25.10
43561;DHT22;32305;46.410;17.394;2023-04-06T15:09:59;25.20;25.00
43561;DHT22;32305;46.410;17.394;2023-04-06T15:12:26;25.20;25.00
43561;DHT22;32305;46.410;17.394;2023-04-06T15:14:53;25.20;25.40
43561;DHT22;32305;46.410;17.394;2023-04-06T15:17:23;25.20;25.00
43561;DHT22;32305;46.410;17.394;2023-04-06T15:19:53;25.20;25.10
43561;DHT22;32305;46.410;17.394;2023-04-06T15:22:21;25.10;25.10